createdAt,value
2019-03-29T00:00:02.459Z,42
2019-03-29T00:02:15.452Z,41.1
2019-03-29T00:03:21.956Z,40
2019-03-29T00:05:34.926Z,39.4
2019-03-29T00:06:41.423Z,39.1
2019-03-29T00:07:47.955Z,39.8
2019-03-29T00:13:20.413Z,40.4
2019-03-29T00:14:26.866Z,39.5
2019-03-29T00:15:33.363Z,39.7
2019-03-29T00:17:46.358Z,41.1
2019-03-29T00:18:52.087Z,39.8
2019-03-29T00:19:59.417Z,39.6
2019-03-29T00:21:05.876Z,39.1
2019-03-29T00:22:12.040Z,40.9
2019-03-29T00:23:18.850Z,40.8
2019-03-29T00:25:31.898Z,40.3
2019-03-29T00:26:38.388Z,40.1
2019-03-29T00:33:17.354Z,41.2
2019-03-29T00:34:23.877Z,39.5
2019-03-29T00:36:36.863Z,39.4
2019-03-29T00:38:49.823Z,41
2019-03-29T00:41:02.087Z,39.7
2019-03-29T00:42:09.296Z,40.7
2019-03-29T00:45:28.799Z,41.6
2019-03-29T00:48:48.327Z,41.1
2019-03-29T00:49:54.810Z,39.1
2019-03-29T00:52:07.078Z,41.2
2019-03-29T00:53:14.310Z,39.9
2019-03-29T00:55:27.283Z,40.1
2019-03-29T00:56:33.774Z,40.3
2019-03-29T00:59:53.298Z,41.6
2019-03-29T01:00:59.098Z,40.3
2019-03-29T01:04:19.238Z,40.7
2019-03-29T01:05:25.777Z,42.2
2019-03-29T01:07:38.752Z,41.3
2019-03-29T01:09:51.726Z,40.6
2019-03-29T01:12:04.742Z,40
2019-03-29T01:13:11.268Z,40.8
2019-03-29T01:15:24.022Z,40.7
2019-03-29T01:18:43.752Z,40.9
2019-03-29T01:19:50.022Z,41.3
2019-03-29T01:20:56.741Z,40.8
2019-03-29T01:23:09.715Z,41.7
2019-03-29T01:24:16.214Z,40.3
2019-03-29T01:27:35.718Z,42.4
2019-03-29T01:28:42.185Z,39.8
2019-03-29T01:29:48.692Z,39.7
2019-03-29T01:30:55.222Z,40.3
2019-03-29T01:32:01.667Z,40.1
2019-03-29T01:33:08.219Z,38.8
2019-03-29T01:35:21.207Z,36.8
2019-03-29T01:36:27.639Z,38.5
2019-03-29T01:38:40.698Z,38.2
2019-03-29T01:39:47.147Z,38.4
2019-03-29T01:40:53.665Z,36.4
2019-03-29T01:44:13.146Z,36.9
2019-03-29T01:46:26.142Z,37.8
2019-03-29T01:48:39.129Z,36.9
2019-03-29T01:56:24.578Z,36
2019-03-29T01:58:37.814Z,35.4
2019-03-29T01:59:44.093Z,33.6
2019-03-29T02:00:50.606Z,34.4
2019-03-29T02:01:57.112Z,35.1
2019-03-29T02:03:03.632Z,34.1
2019-03-29T02:04:10.009Z,34.2
2019-03-29T02:05:16.623Z,34.9
2019-03-29T02:06:23.078Z,35.4
2019-03-29T02:07:29.552Z,34
2019-03-29T02:10:49.063Z,35.8
2019-03-29T02:11:55.588Z,34.3
2019-03-29T02:14:08.558Z,34.4
2019-03-29T02:15:15.091Z,33.6
2019-03-29T02:17:28.092Z,31.9
2019-03-29T02:18:34.529Z,32.7
2019-03-29T02:21:54.006Z,28.5
2019-03-29T02:23:00.548Z,30.5
2019-03-29T02:28:32.991Z,28.3
2019-03-29T02:31:52.053Z,27.3
2019-03-29T02:35:12.012Z,25.5
2019-03-29T02:37:25.001Z,26.5
2019-03-29T02:38:31.460Z,26.7
2019-03-29T02:41:50.991Z,25.4
2019-03-29T02:44:03.984Z,27.5
2019-03-29T02:46:16.985Z,26.5
2019-03-29T02:48:29.956Z,26
2019-03-29T02:49:36.477Z,25.7
2019-03-29T02:50:42.093Z,26.7
2019-03-29T02:52:55.986Z,28
2019-03-29T02:54:02.532Z,25.8
2019-03-29T02:56:15.416Z,27.2
2019-03-29T02:57:21.946Z,27.8
2019-03-29T02:58:28.429Z,26.6
2019-03-29T03:00:41.432Z,26.8
2019-03-29T03:01:47.901Z,26.7
2019-03-29T03:02:54.451Z,26.4
2019-03-29T03:06:13.939Z,25.5
2019-03-29T03:08:26.939Z,27.4
2019-03-29T03:09:33.367Z,26.9
2019-03-29T03:11:46.398Z,26
2019-03-29T03:16:12.409Z,25.8
2019-03-29T03:17:18.861Z,26.8
2019-03-29T03:19:31.835Z,26.4
2019-03-29T03:20:38.367Z,26.7
2019-03-29T03:21:44.896Z,26.2
2019-03-29T03:23:57.872Z,26.9
2019-03-29T03:25:04.346Z,26.7
2019-03-29T03:27:17.036Z,27
2019-03-29T03:28:23.808Z,27.5
2019-03-29T03:29:30.326Z,27.6
2019-03-29T03:31:43.324Z,27.9
2019-03-29T03:32:49.844Z,28
2019-03-29T03:36:09.307Z,28.6
2019-03-29T03:37:15.830Z,27.5
2019-03-29T03:45:01.275Z,27
2019-03-29T03:47:14.270Z,28.5
2019-03-29T03:48:20.080Z,27.8
2019-03-29T03:49:27.024Z,26.9
2019-03-29T03:50:33.077Z,27.8
2019-03-29T03:52:46.798Z,28.7
2019-03-29T03:54:59.787Z,28.2
2019-03-29T03:56:06.233Z,27.5
2019-03-29T03:57:12.734Z,28.1
2019-03-29T03:58:19.235Z,29.8
2019-03-29T03:59:25.780Z,29
2019-03-29T04:00:32.240Z,29.7
2019-03-29T04:02:45.231Z,27.7
2019-03-29T04:03:51.755Z,27.7
2019-03-29T04:06:04.758Z,27.8
2019-03-29T04:07:11.228Z,28.9
2019-03-29T04:09:24.217Z,27.2
2019-03-29T04:10:30.747Z,27
2019-03-29T04:13:50.235Z,27.8
2019-03-29T04:14:56.660Z,27.7
2019-03-29T04:16:03.215Z,27.1
2019-03-29T04:18:16.207Z,28.1
2019-03-29T04:19:22.671Z,27.7
2019-03-29T04:21:35.664Z,27.6
2019-03-29T04:23:48.636Z,27.1
2019-03-29T04:26:01.622Z,27.2
2019-03-29T04:27:08.180Z,27.4
2019-03-29T04:29:21.144Z,28.3
2019-03-29T04:33:47.108Z,27.8
2019-03-29T04:34:53.644Z,26.6
2019-03-29T04:37:06.557Z,26.7
2019-03-29T04:38:13.060Z,26.7
2019-03-29T04:39:19.585Z,26.9
2019-03-29T04:40:26.053Z,27.3
2019-03-29T04:42:39.097Z,27.4
2019-03-29T04:43:45.551Z,28.2
2019-03-29T04:44:52.021Z,27.1
2019-03-29T04:45:58.547Z,27.6
2019-03-29T04:47:05.067Z,28.1
2019-03-29T04:49:18.044Z,26.8
2019-03-29T04:50:24.521Z,26.7
2019-03-29T04:52:37.498Z,26.4
2019-03-29T04:53:44.010Z,27.4
2019-03-29T04:54:50.472Z,26
2019-03-29T04:57:03.476Z,26.1
2019-03-29T04:58:09.984Z,26.4
2019-03-29T05:00:22.942Z,26.7
2019-03-29T05:02:35.984Z,25.8
2019-03-29T05:03:42.452Z,26.4
2019-03-29T05:04:48.915Z,27.1
2019-03-29T05:05:55.443Z,27.7
2019-03-29T05:07:01.901Z,26.9
2019-03-29T05:08:08.417Z,26.1
2019-03-29T05:10:21.428Z,26.9
2019-03-29T05:12:34.384Z,25.9
2019-03-29T05:13:40.892Z,26.6
2019-03-29T05:15:53.897Z,25.6
2019-03-29T05:17:00.370Z,27
2019-03-29T05:19:13.038Z,25.9
2019-03-29T05:20:19.847Z,26.6
2019-03-29T05:21:26.639Z,26.5
2019-03-29T05:23:39.371Z,26.4
2019-03-29T05:24:45.800Z,25.7
2019-03-29T05:26:58.797Z,26.4
2019-03-29T05:28:05.302Z,25.5
2019-03-29T05:31:24.823Z,25.5
2019-03-29T05:32:31.264Z,25
2019-03-29T05:34:44.247Z,24.7
2019-03-29T05:35:50.781Z,24.3
2019-03-29T05:38:03.764Z,22.9
2019-03-29T05:41:23.245Z,24.7
2019-03-29T05:43:36.208Z,24
2019-03-29T05:44:42.752Z,24.3
2019-03-29T05:46:55.073Z,24
2019-03-29T05:49:08.704Z,23.3
2019-03-29T05:51:21.689Z,24
2019-03-29T05:52:28.146Z,23.4
2019-03-29T05:54:41.234Z,23.7
2019-03-29T05:55:47.655Z,23.4
2019-03-29T05:56:54.167Z,23.4
2019-03-29T06:00:13.666Z,22.6
2019-03-29T06:03:33.110Z,23.5
2019-03-29T06:04:39.626Z,22.7
2019-03-29T06:05:46.147Z,23
2019-03-29T06:06:52.688Z,23.4
2019-03-29T06:07:59.134Z,23.3
2019-03-29T06:11:18.557Z,22.4
2019-03-29T06:13:31.581Z,22.9
2019-03-29T06:14:38.096Z,22.3
2019-03-29T06:15:44.564Z,22.7
2019-03-29T06:17:57.635Z,21.3
2019-03-29T06:20:10.502Z,21.3
2019-03-29T06:23:29.986Z,21.8
2019-03-29T06:25:43.032Z,20.4
2019-03-29T06:27:56.041Z,20.9
2019-03-29T06:31:15.497Z,22
2019-03-29T06:33:28.477Z,21.1
2019-03-29T06:34:34.974Z,21
2019-03-29T06:37:54.440Z,21.1
2019-03-29T06:41:13.931Z,20.7
2019-03-29T06:42:20.051Z,20.1
2019-03-29T06:43:26.944Z,19.7
2019-03-29T06:44:33.373Z,19.2
2019-03-29T06:45:39.874Z,18.9
2019-03-29T06:46:46.366Z,19.2
2019-03-29T06:50:05.877Z,18.6
2019-03-29T06:51:12.339Z,18.7
2019-03-29T06:52:18.823Z,18.4
2019-03-29T06:53:25.374Z,18.6
2019-03-29T06:54:31.840Z,18.5
2019-03-29T06:55:38.353Z,17.8
2019-03-29T06:56:44.852Z,18.1
2019-03-29T06:58:57.792Z,17.8
2019-03-29T07:01:10.083Z,18.9
2019-03-29T07:02:17.297Z,19
2019-03-29T07:04:30.299Z,18.7
2019-03-29T07:06:43.307Z,19.2
2019-03-29T07:08:56.272Z,19.6
2019-03-29T07:12:15.733Z,18.3
2019-03-29T07:13:22.250Z,18.4
2019-03-29T07:14:28.752Z,19.2
2019-03-29T07:16:41.730Z,18.9
2019-03-29T07:17:48.023Z,18.8
2019-03-29T07:20:01.239Z,18.6
2019-03-29T07:21:07.689Z,18.5
2019-03-29T07:22:14.209Z,18.3
2019-03-29T07:24:27.200Z,19
2019-03-29T07:25:33.696Z,18.7
2019-03-29T07:27:46.701Z,18.8
2019-03-29T07:28:53.139Z,19.1
2019-03-29T07:31:06.171Z,18.1
2019-03-29T07:35:32.121Z,18.9
2019-03-29T07:37:45.111Z,19
2019-03-29T07:39:58.142Z,19.3
2019-03-29T07:41:04.602Z,19.5
2019-03-29T07:42:10.000Z,19.1
2019-03-29T07:43:17.512Z,18.8
2019-03-29T07:46:37.095Z,19.6
2019-03-29T07:47:43.551Z,19.6
2019-03-29T07:48:50.051Z,19.6
2019-03-29T07:51:03.045Z,19.5
2019-03-29T07:52:09.538Z,18.7
2019-03-29T07:55:29.030Z,18.8
2019-03-29T07:59:55.026Z,16.3
2019-03-29T08:01:01.530Z,16.5
2019-03-29T08:03:14.532Z,16.1
2019-03-29T08:04:20.981Z,16.6
2019-03-29T08:06:34.002Z,15.8
2019-03-29T08:07:40.457Z,14.7
2019-03-29T08:13:12.930Z,15.5
2019-03-29T08:14:19.463Z,15.6
2019-03-29T08:18:45.397Z,16.1
2019-03-29T08:19:51.915Z,15.6
2019-03-29T08:22:04.882Z,15.8
2019-03-29T08:24:17.920Z,15.2
2019-03-29T08:25:24.420Z,16
2019-03-29T08:26:30.857Z,15.6
2019-03-29T08:27:37.378Z,14.6
2019-03-29T08:29:50.413Z,15.6
2019-03-29T08:30:56.857Z,16.3
2019-03-29T08:32:03.037Z,14.9
2019-03-29T08:37:35.868Z,14.9
2019-03-29T08:38:42.315Z,15.8
2019-03-29T08:39:48.854Z,15.1
2019-03-29T08:43:08.281Z,14.9
2019-03-29T08:45:21.029Z,15.3
2019-03-29T08:46:27.792Z,15.9
2019-03-29T08:47:34.282Z,15.6
2019-03-29T08:48:40.800Z,15.8
2019-03-29T08:49:47.288Z,14.7
2019-03-29T08:52:00.247Z,15.5
2019-03-29T08:53:06.773Z,15.2
2019-03-29T08:55:19.755Z,14.9
2019-03-29T08:57:32.775Z,15.4
2019-03-29T08:58:39.262Z,15.6
2019-03-29T09:00:52.019Z,15.5
2019-03-29T09:03:05.260Z,16
2019-03-29T09:05:18.190Z,16.6
2019-03-29T09:07:31.206Z,16.6
2019-03-29T09:08:37.665Z,15.8
2019-03-29T09:09:44.192Z,16.7
2019-03-29T09:10:50.683Z,16.1
2019-03-29T09:11:57.191Z,16.7
2019-03-29T09:14:10.154Z,16.6
2019-03-29T09:16:23.193Z,16.6
2019-03-29T09:17:29.628Z,16.1
2019-03-29T09:19:42.622Z,16.3
2019-03-29T09:20:49.158Z,16.4
2019-03-29T09:24:08.582Z,16.9
2019-03-29T09:25:15.145Z,17.5
2019-03-29T09:26:21.592Z,15.8
2019-03-29T09:28:34.579Z,17.2
2019-03-29T09:29:41.118Z,16.6
2019-03-29T09:31:54.106Z,16.8
2019-03-29T09:34:07.051Z,17.4
2019-03-29T09:36:20.036Z,17.4
2019-03-29T09:37:26.575Z,16.7
2019-03-29T09:39:39.572Z,16.8
2019-03-29T09:41:52.557Z,17.5
2019-03-29T09:44:05.527Z,17.1
2019-03-29T09:45:11.981Z,17.3
2019-03-29T09:48:31.499Z,16.7
2019-03-29T09:49:37.974Z,16.5
2019-03-29T09:50:44.495Z,16.4
2019-03-29T09:51:50.957Z,16.1
2019-03-29T09:52:57.465Z,16.5
2019-03-29T09:56:16.925Z,15.1
2019-03-29T09:57:23.412Z,15.6
2019-03-29T09:59:36.436Z,15
2019-03-29T10:00:42.912Z,15.3
2019-03-29T10:01:49.444Z,14.8
2019-03-29T10:02:55.938Z,15.1
2019-03-29T10:04:02.396Z,14.9
2019-03-29T10:08:28.408Z,14.2
2019-03-29T10:10:41.449Z,14.7
2019-03-29T10:12:54.437Z,14.4
2019-03-29T10:14:00.081Z,14.2
2019-03-29T10:15:07.328Z,13.6
2019-03-29T10:16:13.857Z,13.5
2019-03-29T10:18:26.798Z,13.2
2019-03-29T10:26:12.297Z,11.8
2019-03-29T10:27:18.823Z,10.6
2019-03-29T10:28:25.027Z,10
2019-03-29T10:31:44.779Z,9.9
2019-03-29T10:33:57.767Z,10.2
2019-03-29T10:35:04.285Z,10.1
2019-03-29T10:36:10.748Z,9.8
2019-03-29T10:38:23.700Z,9
2019-03-29T10:39:30.208Z,8.9
2019-03-29T10:42:49.737Z,7.9
2019-03-29T10:43:56.192Z,8.1
2019-03-29T10:46:09.232Z,8
2019-03-29T10:47:15.689Z,8.1
2019-03-29T10:49:28.660Z,7.7
2019-03-29T10:53:54.690Z,7.8
2019-03-29T10:55:01.131Z,7.8
2019-03-29T10:57:14.169Z,6.8
2019-03-29T10:59:27.160Z,6.5
2019-03-29T11:02:46.597Z,6.9
2019-03-29T11:06:06.084Z,6.8
2019-03-29T11:07:12.574Z,6.5
2019-03-29T11:08:19.104Z,6.5
2019-03-29T11:09:25.624Z,6.3
2019-03-29T11:10:32.070Z,7
2019-03-29T11:12:45.086Z,6.8
2019-03-29T11:13:51.639Z,6.4
2019-03-29T11:14:58.106Z,6
2019-03-29T11:17:11.012Z,5.1
2019-03-29T11:20:30.527Z,5.1
2019-03-29T11:21:37.006Z,4.6
2019-03-29T11:22:43.519Z,4.9
2019-03-29T11:24:56.493Z,5.1
2019-03-29T11:30:28.956Z,5
2019-03-29T11:32:41.994Z,4.7
2019-03-29T11:33:48.463Z,5.2
2019-03-29T11:36:01.424Z,5.6
2019-03-29T11:38:14.463Z,5.7
2019-03-29T11:40:27.458Z,5.5
2019-03-29T11:41:33.091Z,5.1
2019-03-29T11:43:46.940Z,5
2019-03-29T11:44:53.426Z,4.9
2019-03-29T11:45:59.897Z,5.1
2019-03-29T11:48:12.086Z,5.2
2019-03-29T11:49:19.388Z,5.4
2019-03-29T11:51:32.346Z,6.5
2019-03-29T11:52:38.872Z,6.2
2019-03-29T11:53:45.386Z,5.6
2019-03-29T11:55:58.350Z,6
2019-03-29T12:00:24.300Z,5.7
2019-03-29T12:01:30.799Z,5.7
2019-03-29T12:03:43.804Z,5.7
2019-03-29T12:07:03.326Z,5.9
2019-03-29T12:09:16.309Z,6.4
2019-03-29T12:12:35.739Z,5
2019-03-29T12:19:14.758Z,3.1
2019-03-29T12:23:40.858Z,2.8
2019-03-29T12:24:47.289Z,2.8
2019-03-29T12:28:06.661Z,3
2019-03-29T12:30:19.675Z,3.1
2019-03-29T12:31:26.201Z,3.2
2019-03-29T12:32:32.653Z,3
2019-03-29T12:34:45.643Z,3.2
2019-03-29T12:35:52.140Z,3
2019-03-29T12:38:05.153Z,3
2019-03-29T12:39:11.905Z,3.1
2019-03-29T12:40:18.128Z,3.3
2019-03-29T12:43:37.589Z,3.8
2019-03-29T12:51:23.100Z,3.8
2019-03-29T12:53:36.056Z,3.4
2019-03-29T12:55:49.026Z,3.7
2019-03-29T12:58:02.060Z,3.7
2019-03-29T13:01:21.585Z,3.7
2019-03-29T13:02:27.998Z,4
2019-03-29T13:03:34.526Z,3.8
2019-03-29T13:05:47.478Z,3.7
2019-03-29T13:06:53.960Z,3.6
2019-03-29T13:10:13.475Z,3.8
2019-03-29T13:17:58.920Z,3.3
2019-03-29T13:19:05.443Z,3.7
2019-03-29T13:21:18.447Z,3.9
2019-03-29T13:26:50.982Z,3.9
2019-03-29T13:30:10.360Z,3.9
2019-03-29T13:32:23.364Z,4.3
2019-03-29T13:34:36.037Z,3.3
2019-03-29T13:36:49.338Z,4.4
2019-03-29T13:37:55.865Z,4.2
2019-03-29T13:40:08.834Z,4
2019-03-29T13:41:15.302Z,4.3
2019-03-29T13:42:21.833Z,3.8
2019-03-29T13:44:34.771Z,4.5
2019-03-29T13:47:54.295Z,4.4
2019-03-29T13:49:00.760Z,4.1
2019-03-29T13:50:07.261Z,3.8
2019-03-29T13:53:26.746Z,3.6
2019-03-29T13:55:39.747Z,4.2
2019-03-29T13:56:46.226Z,4
2019-03-29T13:57:52.747Z,4.9
2019-03-29T14:00:05.717Z,4.5
2019-03-29T14:01:12.250Z,4.1
2019-03-29T14:04:31.701Z,3.8
2019-03-29T14:05:38.022Z,3.8
2019-03-29T14:07:51.163Z,3.7
2019-03-29T14:08:57.702Z,3.9
2019-03-29T14:11:10.686Z,3.7
2019-03-29T14:13:23.651Z,3.5
2019-03-29T14:16:43.185Z,3.6
2019-03-29T14:18:56.115Z,3.6
2019-03-29T14:20:02.662Z,3.1
2019-03-29T14:21:09.146Z,3.4
2019-03-29T14:23:22.105Z,3.2
2019-03-29T14:26:41.630Z,4.2
2019-03-29T14:27:48.096Z,4.3
2019-03-29T14:28:54.594Z,3.9
2019-03-29T14:31:07.597Z,3.6
2019-03-29T14:32:14.075Z,3.6
2019-03-29T14:34:27.122Z,3.2
2019-03-29T14:35:33.555Z,3.2
2019-03-29T14:36:40.092Z,3.5
2019-03-29T14:39:59.570Z,3.5
2019-03-29T14:42:12.599Z,3.4
2019-03-29T14:43:19.042Z,3.8
2019-03-29T14:44:25.557Z,4
2019-03-29T14:47:45.003Z,3.4
2019-03-29T14:49:58.054Z,3.5
2019-03-29T14:52:11.035Z,3.5
2019-03-29T14:54:23.978Z,3.1
2019-03-29T14:55:30.521Z,3
2019-03-29T14:57:43.523Z,3.4
2019-03-29T14:58:49.962Z,3.4
2019-03-29T14:59:56.047Z,3.1
2019-03-29T15:05:28.984Z,3.5
2019-03-29T15:06:35.463Z,3.6
2019-03-29T15:09:54.916Z,3.8
2019-03-29T15:11:01.458Z,3.6
2019-03-29T15:14:20.943Z,3.7
2019-03-29T15:15:27.420Z,3.5
2019-03-29T15:18:46.874Z,3.7
2019-03-29T15:20:59.867Z,3.9
2019-03-29T15:23:12.920Z,3.7
2019-03-29T15:26:32.425Z,4
2019-03-29T15:28:45.344Z,3.5
2019-03-29T15:36:30.798Z,3.6
2019-03-29T15:37:37.311Z,3.3
2019-03-29T15:38:43.787Z,3.4
2019-03-29T15:42:03.327Z,4.1
2019-03-29T15:45:22.806Z,3.6
2019-03-29T15:49:48.815Z,2.9
2019-03-29T15:52:01.779Z,3.8
2019-03-29T15:53:08.271Z,3.3
2019-03-29T15:54:14.793Z,3.9
2019-03-29T15:56:27.715Z,3.2
2019-03-29T15:57:34.516Z,3.7
2019-03-29T15:59:47.258Z,3
2019-03-29T16:02:00.270Z,3.6
2019-03-29T16:04:13.202Z,3.8
2019-03-29T16:05:19.680Z,3.7
2019-03-29T16:07:32.700Z,3.9
2019-03-29T16:09:45.721Z,3.7
2019-03-29T16:11:58.858Z,3.9
2019-03-29T16:13:05.196Z,4
2019-03-29T16:16:24.655Z,3.6
2019-03-29T16:17:31.189Z,3.8
2019-03-29T16:20:50.663Z,3.3
2019-03-29T16:23:03.642Z,2.7
2019-03-29T16:24:10.159Z,2.8
2019-03-29T16:30:49.106Z,3.4
2019-03-29T16:31:55.580Z,2.9
2019-03-29T16:35:15.081Z,2.8
2019-03-29T16:36:21.610Z,2.7
2019-03-29T16:38:34.055Z,2.7
2019-03-29T16:39:41.096Z,3.1
2019-03-29T16:40:47.542Z,2.9
2019-03-29T16:43:00.549Z,3.4
2019-03-29T16:48:33.030Z,2.6
2019-03-29T16:50:46.031Z,2.9
2019-03-29T16:51:52.493Z,2.8
2019-03-29T16:55:12.014Z,3
2019-03-29T16:56:18.046Z,2.6
2019-03-29T16:58:31.473Z,2.9
2019-03-29T17:02:57.481Z,2.8
2019-03-29T17:04:03.944Z,2.8
2019-03-29T17:06:16.000Z,3
2019-03-29T17:07:23.487Z,3.1
2019-03-29T17:10:42.912Z,3.1
2019-03-29T17:14:02.000Z,3.7
2019-03-29T17:17:21.949Z,3.2
2019-03-29T17:21:47.899Z,3
2019-03-29T17:22:54.418Z,3.2
2019-03-29T17:25:07.420Z,4.4
2019-03-29T17:29:33.400Z,7.2
2019-03-29T17:30:39.870Z,3
2019-03-29T17:32:52.871Z,3.1
2019-03-29T17:33:59.340Z,3.1
2019-03-29T17:35:05.879Z,3.1
2019-03-29T17:37:18.874Z,3
2019-03-29T17:38:25.321Z,3.2
2019-03-29T17:40:38.350Z,2.9
2019-03-29T17:41:44.835Z,3.2
2019-03-29T17:45:04.265Z,3.2
2019-03-29T17:46:10.080Z,3
2019-03-29T17:48:23.079Z,3.5
2019-03-29T17:49:30.255Z,3.5
2019-03-29T17:50:36.775Z,3.4
2019-03-29T17:52:49.793Z,3.4
2019-03-29T17:53:56.272Z,3.1
2019-03-29T17:56:09.249Z,3.5
2019-03-29T17:58:22.244Z,3.6
2019-03-29T18:01:41.701Z,4.1
2019-03-29T18:06:07.708Z,4
2019-03-29T18:08:20.073Z,3.7
2019-03-29T18:09:27.002Z,3.8
2019-03-29T18:12:46.718Z,3.8
2019-03-29T18:16:06.193Z,4.2
2019-03-29T18:17:12.653Z,4.4
2019-03-29T18:19:25.064Z,5.1
2019-03-29T18:20:32.150Z,4.4
2019-03-29T18:21:38.686Z,6.4
2019-03-29T18:23:51.620Z,5.8
2019-03-29T18:24:58.152Z,5.6
2019-03-29T18:27:11.168Z,5.3
2019-03-29T18:28:17.626Z,5.3
2019-03-29T18:31:37.091Z,6
2019-03-29T18:32:43.636Z,6.1
2019-03-29T18:34:56.619Z,6.9
2019-03-29T18:37:09.590Z,7
2019-03-29T18:44:55.119Z,6.4
2019-03-29T18:47:08.085Z,5.5
2019-03-29T18:48:14.055Z,5.6
2019-03-29T18:50:27.580Z,5.1
2019-03-29T18:51:34.071Z,5.8
2019-03-29T18:52:40.058Z,5.3
2019-03-29T18:54:53.537Z,5.9
2019-03-29T18:56:00.083Z,5.9
2019-03-29T18:59:19.053Z,5.8
2019-03-29T19:02:39.056Z,6.2
2019-03-29T19:05:58.541Z,6.3
2019-03-29T19:07:05.004Z,7
2019-03-29T19:08:11.515Z,6.8
2019-03-29T19:13:44.002Z,7.5
2019-03-29T19:15:56.954Z,6.9
2019-03-29T19:18:09.096Z,6.7
2019-03-29T19:19:16.500Z,6.7
2019-03-29T19:21:29.004Z,6.9
2019-03-29T19:27:01.960Z,6.5
2019-03-29T19:30:21.465Z,7.7
2019-03-29T19:31:27.904Z,8
2019-03-29T19:33:40.931Z,8.5
2019-03-29T19:34:47.442Z,8.2
2019-03-29T19:37:00.432Z,7.8
2019-03-29T19:38:06.944Z,7.6
2019-03-29T19:39:13.382Z,7.7
2019-03-29T19:41:26.402Z,7.9
2019-03-29T19:42:32.867Z,8
2019-03-29T19:44:45.870Z,8
2019-03-29T19:45:52.412Z,8.1
2019-03-29T19:49:11.871Z,6.5
2019-03-29T19:50:18.325Z,6.5
2019-03-29T19:52:31.349Z,5.8
2019-03-29T19:56:57.341Z,5.3
2019-03-29T20:00:16.804Z,5.4
2019-03-29T20:02:29.086Z,5.9
2019-03-29T20:05:49.348Z,5.7
2019-03-29T20:08:02.324Z,5.6
2019-03-29T20:09:08.800Z,5.3
2019-03-29T20:12:28.300Z,4.6
2019-03-29T20:15:47.798Z,4.6
2019-03-29T20:16:54.273Z,4.6
2019-03-29T20:18:00.745Z,5.1
2019-03-29T20:20:13.805Z,4.8
2019-03-29T20:21:20.263Z,4.7
2019-03-29T20:24:39.723Z,4.7
2019-03-29T20:25:46.239Z,4.7
2019-03-29T20:27:59.024Z,4.6
2019-03-29T20:31:18.743Z,4.8
2019-03-29T20:35:44.706Z,4.4
2019-03-29T20:36:51.184Z,4.6
2019-03-29T20:39:04.191Z,4.8
2019-03-29T20:41:17.021Z,5.3
2019-03-29T20:43:30.179Z,5.4
2019-03-29T20:44:36.697Z,5.2
2019-03-29T20:46:49.672Z,5.1
2019-03-29T20:47:56.157Z,5.4
2019-03-29T20:49:02.683Z,5.2
2019-03-29T20:51:15.698Z,5.7
2019-03-29T20:52:22.186Z,5.2
2019-03-29T20:55:41.667Z,5.6
2019-03-29T21:02:20.666Z,6.6
2019-03-29T21:03:27.147Z,6.5
2019-03-29T21:04:33.606Z,6.6
2019-03-29T21:07:53.080Z,6.6
2019-03-29T21:10:06.092Z,7.1
2019-03-29T21:12:19.112Z,6.5
2019-03-29T21:14:32.100Z,6.4
2019-03-29T21:15:38.664Z,6.5
2019-03-29T21:17:51.566Z,6.7
2019-03-29T21:20:04.574Z,7.1
2019-03-29T21:22:17.057Z,7.1
2019-03-29T21:25:37.119Z,6.8
2019-03-29T21:26:43.576Z,6.4
2019-03-29T21:30:03.076Z,6.4
2019-03-29T21:31:09.551Z,6.6
2019-03-29T21:33:22.539Z,6.7
2019-03-29T21:34:28.997Z,6.8
2019-03-29T21:37:48.557Z,6.7
2019-03-29T21:41:07.998Z,6.7
2019-03-29T21:42:14.476Z,7.2
2019-03-29T21:43:21.011Z,6.9
2019-03-29T21:45:34.004Z,7.1
2019-03-29T21:46:40.484Z,6.9
2019-03-29T21:48:53.521Z,7.2
2019-03-29T21:51:06.452Z,7.5
2019-03-29T21:53:19.466Z,7
2019-03-29T21:54:25.939Z,6.8
2019-03-29T21:56:38.963Z,7.1
2019-03-29T21:58:52.003Z,7.2
2019-03-29T22:01:04.947Z,7.3
2019-03-29T22:02:11.419Z,7.1
2019-03-29T22:04:24.474Z,7.5
2019-03-29T22:05:30.975Z,7.7
2019-03-29T22:08:50.406Z,7.2
2019-03-29T22:09:56.967Z,7.4
2019-03-29T22:12:09.088Z,7.4
2019-03-29T22:13:16.389Z,7.3
2019-03-29T22:14:22.913Z,7.5
2019-03-29T22:16:35.904Z,7.5
2019-03-29T22:17:42.427Z,7.2
2019-03-29T22:19:55.039Z,7.8
2019-03-29T22:21:01.865Z,7.3
2019-03-29T22:22:08.361Z,7.7
2019-03-29T22:25:27.916Z,8
2019-03-29T22:27:40.893Z,7.8
2019-03-29T22:32:06.879Z,7.5
2019-03-29T22:33:13.338Z,6.6
2019-03-29T22:35:26.035Z,7.5
2019-03-29T22:37:39.350Z,7.5
2019-03-29T22:39:52.369Z,7.3
2019-03-29T22:43:11.832Z,6.9
2019-03-29T22:44:18.032Z,7.3
2019-03-29T22:49:50.790Z,7.6
2019-03-29T22:52:03.780Z,7.7
2019-03-29T22:53:10.319Z,7.5
2019-03-29T22:55:23.318Z,7.3
2019-03-29T22:56:29.774Z,7.2
2019-03-29T22:58:42.794Z,7
2019-03-29T22:59:49.267Z,7.3
2019-03-29T23:06:28.288Z,7.4
2019-03-29T23:08:41.279Z,7.2
2019-03-29T23:10:54.221Z,7.4
2019-03-29T23:12:00.761Z,8
2019-03-29T23:14:13.744Z,7.6
2019-03-29T23:18:39.689Z,7.4
2019-03-29T23:21:59.221Z,9.3
2019-03-29T23:23:05.679Z,8.3
2019-03-29T23:24:12.210Z,8
2019-03-29T23:25:18.668Z,7.7
2019-03-29T23:26:25.195Z,8.8
2019-03-29T23:27:31.716Z,7.7
2019-03-29T23:30:51.208Z,9.3
2019-03-29T23:31:57.679Z,8.6
2019-03-29T23:33:04.149Z,8.6
2019-03-29T23:35:17.145Z,8.6
2019-03-29T23:36:23.626Z,8.4
2019-03-29T23:37:30.144Z,8.1
2019-03-29T23:38:36.627Z,7.2
2019-03-29T23:39:43.106Z,8
2019-03-29T23:41:56.126Z,7.2
2019-03-29T23:43:02.588Z,7.7
2019-03-29T23:45:15.567Z,7.8
2019-03-29T23:47:28.698Z,7.4
2019-03-29T23:49:41.585Z,7.3
2019-03-29T23:50:48.075Z,6.9
2019-03-29T23:53:01.058Z,7.3
2019-03-29T23:57:26.998Z,6.6
2019-03-29T23:58:33.552Z,7.2
2019-03-29T23:59:40.015Z,7.8
